sensor_id;sensor_type;location;lat;lon;timestamp;P1;durP1;ratioP1;P2;durP2;ratioP2
43124;SDS011;49182;50.788;7.318;2023-02-04T00:00:57;15.98;;;2.72;;
43124;SDS011;49182;50.788;7.318;2023-02-04T00:03:24;11.25;;;3.90;;
43124;SDS011;49182;50.788;7.318;2023-02-04T00:05:51;15.20;;;2.95;;
43124;SDS011;49182;50.788;7.318;2023-02-04T00:08:17;18.85;;;3.00;;
43124;SDS011;49182;50.788;7.318;2023-02-04T00:10:45;17.67;;;3.08;;
43124;SDS011;49182;50.788;7.318;2023-02-04T00:13:12;12.50;;;2.95;;
43124;SDS011;49182;50.788;7.318;2023-02-04T00:15:39;14.48;;;3.00;;
43124;SDS011;49182;50.788;7.318;2023-02-04T00:18:05;18.88;;;3.50;;
43124;SDS011;49182;50.788;7.318;2023-02-04T00:20:32;14.23;;;2.80;;
43124;SDS011;49182;50.788;7.318;2023-02-04T00:22:59;17.55;;;3.88;;
43124;SDS011;49182;50.788;7.318;2023-02-04T00:25:25;17.48;;;3.08;;
43124;SDS011;49182;50.788;7.318;2023-02-04T00:27:54;23.20;;;2.90;;
43124;SDS011;49182;50.788;7.318;2023-02-04T00:30:20;16.90;;;3.75;;
43124;SDS011;49182;50.788;7.318;2023-02-04T00:32:47;20.13;;;3.38;;
43124;SDS011;49182;50.788;7.318;2023-02-04T00:35:13;20.15;;;3.13;;
43124;SDS011;49182;50.788;7.318;2023-02-04T00:37:40;18.25;;;3.40;;
43124;SDS011;49182;50.788;7.318;2023-02-04T00:40:08;15.32;;;3.20;;
43124;SDS011;49182;50.788;7.318;2023-02-04T00:42:37;19.05;;;3.33;;
43124;SDS011;49182;50.788;7.318;2023-02-04T00:45:05;11.77;;;2.40;;
43124;SDS011;49182;50.788;7.318;2023-02-04T00:47:33;16.05;;;3.83;;
43124;SDS011;49182;50.788;7.318;2023-02-04T00:49:59;13.75;;;2.83;;
43124;SDS011;49182;50.788;7.318;2023-02-04T00:52:26;15.30;;;2.90;;
43124;SDS011;49182;50.788;7.318;2023-02-04T00:54:53;17.23;;;3.35;;
43124;SDS011;49182;50.788;7.318;2023-02-04T00:57:20;25.13;;;4.07;;
43124;SDS011;49182;50.788;7.318;2023-02-04T00:59:47;17.00;;;4.25;;
43124;SDS011;49182;50.788;7.318;2023-02-04T01:02:17;21.75;;;3.50;;
43124;SDS011;49182;50.788;7.318;2023-02-04T01:04:44;14.15;;;2.92;;
43124;SDS011;49182;50.788;7.318;2023-02-04T01:07:10;22.63;;;3.53;;
43124;SDS011;49182;50.788;7.318;2023-02-04T01:09:37;17.50;;;4.10;;
43124;SDS011;49182;50.788;7.318;2023-02-04T01:12:03;13.48;;;3.17;;
43124;SDS011;49182;50.788;7.318;2023-02-04T01:14:30;16.73;;;3.45;;
43124;SDS011;49182;50.788;7.318;2023-02-04T01:16:56;20.77;;;4.20;;
43124;SDS011;49182;50.788;7.318;2023-02-04T01:19:26;17.40;;;4.40;;
43124;SDS011;49182;50.788;7.318;2023-02-04T01:21:52;13.55;;;3.45;;
43124;SDS011;49182;50.788;7.318;2023-02-04T01:24:19;20.40;;;3.75;;
43124;SDS011;49182;50.788;7.318;2023-02-04T01:27:04;18.98;;;3.42;;
43124;SDS011;49182;50.788;7.318;2023-02-04T01:29:31;13.63;;;4.18;;
43124;SDS011;49182;50.788;7.318;2023-02-04T01:31:58;22.83;;;4.70;;
43124;SDS011;49182;50.788;7.318;2023-02-04T01:34:26;18.95;;;3.65;;
43124;SDS011;49182;50.788;7.318;2023-02-04T01:36:52;15.63;;;3.55;;
43124;SDS011;49182;50.788;7.318;2023-02-04T01:39:19;16.20;;;3.15;;
43124;SDS011;49182;50.788;7.318;2023-02-04T01:41:46;28.50;;;4.32;;
43124;SDS011;49182;50.788;7.318;2023-02-04T01:44:12;22.45;;;3.60;;
43124;SDS011;49182;50.788;7.318;2023-02-04T01:46:39;15.10;;;3.55;;
43124;SDS011;49182;50.788;7.318;2023-02-04T01:49:08;27.58;;;4.40;;
43124;SDS011;49182;50.788;7.318;2023-02-04T01:51:38;15.60;;;3.42;;
43124;SDS011;49182;50.788;7.318;2023-02-04T01:54:04;17.33;;;4.53;;
43124;SDS011;49182;50.788;7.318;2023-02-04T01:56:34;17.67;;;3.53;;
43124;SDS011;49182;50.788;7.318;2023-02-04T01:59:01;14.90;;;2.90;;
43124;SDS011;49182;50.788;7.318;2023-02-04T02:01:34;19.02;;;4.97;;
43124;SDS011;49182;50.788;7.318;2023-02-04T02:04:03;23.35;;;3.67;;
43124;SDS011;49182;50.788;7.318;2023-02-04T02:06:31;16.60;;;3.38;;
43124;SDS011;49182;50.788;7.318;2023-02-04T02:09:00;18.33;;;3.90;;
43124;SDS011;49182;50.788;7.318;2023-02-04T02:11:27;12.60;;;3.15;;
43124;SDS011;49182;50.788;7.318;2023-02-04T02:13:54;13.50;;;3.10;;
43124;SDS011;49182;50.788;7.318;2023-02-04T02:16:21;19.88;;;3.42;;
43124;SDS011;49182;50.788;7.318;2023-02-04T02:18:48;15.63;;;3.60;;
43124;SDS011;49182;50.788;7.318;2023-02-04T02:21:17;21.85;;;3.63;;
43124;SDS011;49182;50.788;7.318;2023-02-04T02:23:49;19.75;;;3.95;;
43124;SDS011;49182;50.788;7.318;2023-02-04T02:26:19;15.20;;;3.08;;
43124;SDS011;49182;50.788;7.318;2023-02-04T02:28:47;22.67;;;3.42;;
43124;SDS011;49182;50.788;7.318;2023-02-04T02:31:14;20.45;;;4.07;;
43124;SDS011;49182;50.788;7.318;2023-02-04T02:33:43;18.33;;;2.92;;
43124;SDS011;49182;50.788;7.318;2023-02-04T02:36:11;19.48;;;3.63;;
43124;SDS011;49182;50.788;7.318;2023-02-04T02:38:38;19.92;;;3.95;;
43124;SDS011;49182;50.788;7.318;2023-02-04T02:41:06;21.33;;;3.97;;
43124;SDS011;49182;50.788;7.318;2023-02-04T02:43:33;15.32;;;3.30;;
43124;SDS011;49182;50.788;7.318;2023-02-04T02:46:03;20.08;;;3.63;;
43124;SDS011;49182;50.788;7.318;2023-02-04T02:48:30;22.00;;;3.88;;
43124;SDS011;49182;50.788;7.318;2023-02-04T02:50:57;19.33;;;3.13;;
43124;SDS011;49182;50.788;7.318;2023-02-04T02:53:24;22.55;;;4.60;;
43124;SDS011;49182;50.788;7.318;2023-02-04T02:55:51;18.25;;;4.18;;
43124;SDS011;49182;50.788;7.318;2023-02-04T02:58:23;15.73;;;3.60;;
43124;SDS011;49182;50.788;7.318;2023-02-04T03:00:54;15.82;;;4.45;;
43124;SDS011;49182;50.788;7.318;2023-02-04T03:03:23;17.52;;;3.38;;
43124;SDS011;49182;50.788;7.318;2023-02-04T03:05:54;19.48;;;3.17;;
43124;SDS011;49182;50.788;7.318;2023-02-04T03:08:24;13.10;;;3.75;;
43124;SDS011;49182;50.788;7.318;2023-02-04T03:10:51;17.55;;;4.55;;
43124;SDS011;49182;50.788;7.318;2023-02-04T03:13:18;21.52;;;3.40;;
43124;SDS011;49182;50.788;7.318;2023-02-04T03:15:47;15.35;;;4.00;;
43124;SDS011;49182;50.788;7.318;2023-02-04T03:18:15;19.42;;;3.78;;
43124;SDS011;49182;50.788;7.318;2023-02-04T03:20:44;16.40;;;3.47;;
43124;SDS011;49182;50.788;7.318;2023-02-04T03:23:11;13.00;;;3.30;;
43124;SDS011;49182;50.788;7.318;2023-02-04T03:25:39;18.33;;;3.88;;
43124;SDS011;49182;50.788;7.318;2023-02-04T03:28:06;19.65;;;2.88;;
43124;SDS011;49182;50.788;7.318;2023-02-04T03:30:34;19.85;;;4.07;;
43124;SDS011;49182;50.788;7.318;2023-02-04T03:33:03;18.63;;;3.88;;
43124;SDS011;49182;50.788;7.318;2023-02-04T03:35:29;23.42;;;3.65;;
43124;SDS011;49182;50.788;7.318;2023-02-04T03:37:56;18.30;;;3.03;;
43124;SDS011;49182;50.788;7.318;2023-02-04T03:40:22;17.02;;;2.72;;
43124;SDS011;49182;50.788;7.318;2023-02-04T03:42:49;16.63;;;3.22;;
43124;SDS011;49182;50.788;7.318;2023-02-04T03:45:15;17.30;;;2.67;;
43124;SDS011;49182;50.788;7.318;2023-02-04T03:47:42;16.63;;;3.50;;
43124;SDS011;49182;50.788;7.318;2023-02-04T03:50:10;13.88;;;3.10;;
43124;SDS011;49182;50.788;7.318;2023-02-04T03:52:36;18.63;;;3.63;;
43124;SDS011;49182;50.788;7.318;2023-02-04T03:55:03;17.42;;;3.28;;
43124;SDS011;49182;50.788;7.318;2023-02-04T03:57:30;14.65;;;2.97;;
43124;SDS011;49182;50.788;7.318;2023-02-04T03:59:57;18.77;;;3.55;;
43124;SDS011;49182;50.788;7.318;2023-02-04T04:02:23;16.50;;;3.08;;
43124;SDS011;49182;50.788;7.318;2023-02-04T04:04:50;14.57;;;3.38;;
43124;SDS011;49182;50.788;7.318;2023-02-04T04:07:18;18.15;;;3.67;;
43124;SDS011;49182;50.788;7.318;2023-02-04T04:09:45;20.42;;;4.22;;
43124;SDS011;49182;50.788;7.318;2023-02-04T04:12:11;14.23;;;2.70;;
43124;SDS011;49182;50.788;7.318;2023-02-04T04:14:38;14.18;;;2.83;;
43124;SDS011;49182;50.788;7.318;2023-02-04T04:17:04;16.95;;;4.03;;
43124;SDS011;49182;50.788;7.318;2023-02-04T04:19:31;18.80;;;3.22;;
43124;SDS011;49182;50.788;7.318;2023-02-04T04:21:57;16.77;;;3.80;;
43124;SDS011;49182;50.788;7.318;2023-02-04T04:24:25;17.25;;;3.75;;
43124;SDS011;49182;50.788;7.318;2023-02-04T04:26:52;16.00;;;3.17;;
43124;SDS011;49182;50.788;7.318;2023-02-04T04:29:19;20.77;;;4.07;;
43124;SDS011;49182;50.788;7.318;2023-02-04T04:31:45;13.57;;;2.97;;
43124;SDS011;49182;50.788;7.318;2023-02-04T04:34:12;18.67;;;3.35;;
43124;SDS011;49182;50.788;7.318;2023-02-04T04:36:39;19.58;;;3.40;;
43124;SDS011;49182;50.788;7.318;2023-02-04T04:39:05;21.13;;;4.00;;
43124;SDS011;49182;50.788;7.318;2023-02-04T04:41:33;16.92;;;3.10;;
43124;SDS011;49182;50.788;7.318;2023-02-04T04:44:00;14.13;;;3.13;;
43124;SDS011;49182;50.788;7.318;2023-02-04T04:46:27;12.05;;;3.33;;
43124;SDS011;49182;50.788;7.318;2023-02-04T04:48:53;26.48;;;3.40;;
43124;SDS011;49182;50.788;7.318;2023-02-04T04:51:20;17.88;;;3.33;;
43124;SDS011;49182;50.788;7.318;2023-02-04T04:53:47;12.40;;;2.90;;
43124;SDS011;49182;50.788;7.318;2023-02-04T04:56:13;23.85;;;3.60;;
43124;SDS011;49182;50.788;7.318;2023-02-04T04:58:41;15.43;;;3.08;;
43124;SDS011;49182;50.788;7.318;2023-02-04T05:01:08;14.63;;;2.65;;
43124;SDS011;49182;50.788;7.318;2023-02-04T05:03:34;18.63;;;2.53;;
43124;SDS011;49182;50.788;7.318;2023-02-04T05:06:01;16.80;;;4.40;;
43124;SDS011;49182;50.788;7.318;2023-02-04T05:08:28;11.75;;;2.58;;
43124;SDS011;49182;50.788;7.318;2023-02-04T05:10:54;16.60;;;4.20;;
43124;SDS011;49182;50.788;7.318;2023-02-04T05:13:21;13.07;;;2.78;;
43124;SDS011;49182;50.788;7.318;2023-02-04T05:15:48;14.10;;;2.70;;
43124;SDS011;49182;50.788;7.318;2023-02-04T05:18:15;12.88;;;2.58;;
43124;SDS011;49182;50.788;7.318;2023-02-04T05:20:42;16.63;;;3.13;;
43124;SDS011;49182;50.788;7.318;2023-02-04T05:23:08;16.17;;;2.92;;
43124;SDS011;49182;50.788;7.318;2023-02-04T05:25:35;12.95;;;3.28;;
43124;SDS011;49182;50.788;7.318;2023-02-04T05:28:01;15.23;;;2.88;;
43124;SDS011;49182;50.788;7.318;2023-02-04T05:30:28;16.67;;;3.65;;
43124;SDS011;49182;50.788;7.318;2023-02-04T05:32:56;17.45;;;3.17;;
43124;SDS011;49182;50.788;7.318;2023-02-04T05:35:23;15.02;;;2.90;;
43124;SDS011;49182;50.788;7.318;2023-02-04T05:37:50;14.00;;;3.00;;
43124;SDS011;49182;50.788;7.318;2023-02-04T05:40:16;12.43;;;2.55;;
43124;SDS011;49182;50.788;7.318;2023-02-04T05:42:43;13.40;;;2.90;;
43124;SDS011;49182;50.788;7.318;2023-02-04T05:45:12;15.27;;;3.15;;
43124;SDS011;49182;50.788;7.318;2023-02-04T05:47:40;20.90;;;3.70;;
43124;SDS011;49182;50.788;7.318;2023-02-04T05:50:08;16.35;;;3.53;;
43124;SDS011;49182;50.788;7.318;2023-02-04T05:52:36;17.55;;;3.70;;
43124;SDS011;49182;50.788;7.318;2023-02-04T05:55:02;18.05;;;4.70;;
43124;SDS011;49182;50.788;7.318;2023-02-04T05:57:30;9.60;;;2.97;;
43124;SDS011;49182;50.788;7.318;2023-02-04T05:59:56;12.35;;;3.20;;
43124;SDS011;49182;50.788;7.318;2023-02-04T06:02:23;12.40;;;2.75;;
43124;SDS011;49182;50.788;7.318;2023-02-04T06:04:50;14.90;;;3.33;;
43124;SDS011;49182;50.788;7.318;2023-02-04T06:07:17;14.02;;;2.85;;
43124;SDS011;49182;50.788;7.318;2023-02-04T06:09:44;11.40;;;3.60;;
43124;SDS011;49182;50.788;7.318;2023-02-04T06:12:11;15.48;;;3.63;;
43124;SDS011;49182;50.788;7.318;2023-02-04T06:14:37;15.07;;;3.47;;
43124;SDS011;49182;50.788;7.318;2023-02-04T06:17:04;17.40;;;3.35;;
43124;SDS011;49182;50.788;7.318;2023-02-04T06:19:31;17.55;;;3.92;;
43124;SDS011;49182;50.788;7.318;2023-02-04T06:21:57;13.25;;;3.13;;
43124;SDS011;49182;50.788;7.318;2023-02-04T06:24:25;17.10;;;3.60;;
43124;SDS011;49182;50.788;7.318;2023-02-04T06:26:52;19.45;;;4.15;;
43124;SDS011;49182;50.788;7.318;2023-02-04T06:29:18;18.13;;;3.53;;
43124;SDS011;49182;50.788;7.318;2023-02-04T06:31:45;13.10;;;3.22;;
43124;SDS011;49182;50.788;7.318;2023-02-04T06:34:11;15.73;;;3.30;;
43124;SDS011;49182;50.788;7.318;2023-02-04T06:36:38;19.10;;;4.28;;
43124;SDS011;49182;50.788;7.318;2023-02-04T06:39:05;16.92;;;3.30;;
43124;SDS011;49182;50.788;7.318;2023-02-04T06:41:33;14.75;;;3.78;;
43124;SDS011;49182;50.788;7.318;2023-02-04T06:43:59;19.10;;;4.30;;
43124;SDS011;49182;50.788;7.318;2023-02-04T06:46:26;13.52;;;4.57;;
43124;SDS011;49182;50.788;7.318;2023-02-04T06:48:53;19.08;;;4.68;;
43124;SDS011;49182;50.788;7.318;2023-02-04T06:51:19;21.02;;;5.32;;
43124;SDS011;49182;50.788;7.318;2023-02-04T06:53:46;20.83;;;5.20;;
43124;SDS011;49182;50.788;7.318;2023-02-04T06:56:13;14.70;;;5.00;;
43124;SDS011;49182;50.788;7.318;2023-02-04T06:58:40;17.45;;;5.78;;
43124;SDS011;49182;50.788;7.318;2023-02-04T07:01:07;19.95;;;4.82;;
43124;SDS011;49182;50.788;7.318;2023-02-04T07:03:34;19.75;;;6.53;;
43124;SDS011;49182;50.788;7.318;2023-02-04T07:06:00;19.83;;;6.00;;
43124;SDS011;49182;50.788;7.318;2023-02-04T07:08:27;15.43;;;5.05;;
43124;SDS011;49182;50.788;7.318;2023-02-04T07:10:53;17.58;;;4.78;;
43124;SDS011;49182;50.788;7.318;2023-02-04T07:13:20;22.42;;;5.97;;
43124;SDS011;49182;50.788;7.318;2023-02-04T07:15:48;25.80;;;6.47;;
43124;SDS011;49182;50.788;7.318;2023-02-04T07:18:14;21.08;;;5.63;;
43124;SDS011;49182;50.788;7.318;2023-02-04T07:20:41;17.85;;;5.95;;
43124;SDS011;49182;50.788;7.318;2023-02-04T07:23:07;21.45;;;5.50;;
43124;SDS011;49182;50.788;7.318;2023-02-04T07:25:34;24.42;;;5.78;;
43124;SDS011;49182;50.788;7.318;2023-02-04T07:28:01;21.85;;;5.72;;
43124;SDS011;49182;50.788;7.318;2023-02-04T07:30:27;20.67;;;5.80;;
43124;SDS011;49182;50.788;7.318;2023-02-04T07:32:55;26.83;;;6.25;;
43124;SDS011;49182;50.788;7.318;2023-02-04T07:35:22;24.80;;;5.88;;
43124;SDS011;49182;50.788;7.318;2023-02-04T07:37:49;19.92;;;6.72;;
43124;SDS011;49182;50.788;7.318;2023-02-04T07:40:18;19.10;;;5.25;;
43124;SDS011;49182;50.788;7.318;2023-02-04T07:42:44;23.75;;;6.53;;
43124;SDS011;49182;50.788;7.318;2023-02-04T07:45:15;18.97;;;5.77;;
43124;SDS011;49182;50.788;7.318;2023-02-04T07:47:42;16.50;;;5.47;;
43124;SDS011;49182;50.788;7.318;2023-02-04T07:50:10;22.27;;;5.80;;
43124;SDS011;49182;50.788;7.318;2023-02-04T07:52:37;20.63;;;5.78;;
43124;SDS011;49182;50.788;7.318;2023-02-04T07:55:03;25.13;;;7.28;;
43124;SDS011;49182;50.788;7.318;2023-02-04T07:57:31;32.55;;;10.90;;
43124;SDS011;49182;50.788;7.318;2023-02-04T07:59:57;27.80;;;7.38;;
43124;SDS011;49182;50.788;7.318;2023-02-04T08:02:24;20.95;;;7.60;;
43124;SDS011;49182;50.788;7.318;2023-02-04T08:04:51;26.25;;;9.45;;
43124;SDS011;49182;50.788;7.318;2023-02-04T08:07:19;33.42;;;12.43;;
43124;SDS011;49182;50.788;7.318;2023-02-04T08:09:46;30.73;;;11.18;;
43124;SDS011;49182;50.788;7.318;2023-02-04T08:12:13;39.38;;;11.25;;
43124;SDS011;49182;50.788;7.318;2023-02-04T08:14:40;23.25;;;7.50;;
43124;SDS011;49182;50.788;7.318;2023-02-04T08:17:06;21.73;;;7.10;;
43124;SDS011;49182;50.788;7.318;2023-02-04T08:19:33;25.77;;;8.80;;
43124;SDS011;49182;50.788;7.318;2023-02-04T08:21:59;19.90;;;6.80;;
43124;SDS011;49182;50.788;7.318;2023-02-04T08:24:27;33.20;;;9.68;;
43124;SDS011;49182;50.788;7.318;2023-02-04T08:26:54;23.52;;;7.70;;
43124;SDS011;49182;50.788;7.318;2023-02-04T08:29:21;25.83;;;9.13;;
43124;SDS011;49182;50.788;7.318;2023-02-04T08:31:47;30.77;;;8.90;;
43124;SDS011;49182;50.788;7.318;2023-02-04T08:34:14;30.63;;;10.52;;
43124;SDS011;49182;50.788;7.318;2023-02-04T08:36:41;34.35;;;10.93;;
43124;SDS011;49182;50.788;7.318;2023-02-04T08:39:07;29.75;;;10.13;;
43124;SDS011;49182;50.788;7.318;2023-02-04T08:41:36;19.48;;;7.93;;
43124;SDS011;49182;50.788;7.318;2023-02-04T08:44:02;25.50;;;7.07;;
43124;SDS011;49182;50.788;7.318;2023-02-04T08:46:29;25.92;;;6.55;;
43124;SDS011;49182;50.788;7.318;2023-02-04T08:48:56;24.40;;;6.53;;
43124;SDS011;49182;50.788;7.318;2023-02-04T08:51:23;28.30;;;7.03;;
43124;SDS011;49182;50.788;7.318;2023-02-04T08:53:49;19.08;;;6.90;;
43124;SDS011;49182;50.788;7.318;2023-02-04T08:56:16;20.25;;;7.00;;
43124;SDS011;49182;50.788;7.318;2023-02-04T08:58:44;21.27;;;6.78;;
43124;SDS011;49182;50.788;7.318;2023-02-04T09:01:11;24.25;;;6.78;;
43124;SDS011;49182;50.788;7.318;2023-02-04T09:03:38;18.75;;;6.97;;
43124;SDS011;49182;50.788;7.318;2023-02-04T09:06:05;19.65;;;6.35;;
43124;SDS011;49182;50.788;7.318;2023-02-04T09:08:32;22.20;;;6.80;;
43124;SDS011;49182;50.788;7.318;2023-02-04T09:10:59;23.85;;;7.20;;
43124;SDS011;49182;50.788;7.318;2023-02-04T09:13:26;20.77;;;8.10;;
43124;SDS011;49182;50.788;7.318;2023-02-04T09:15:54;21.33;;;6.93;;
43124;SDS011;49182;50.788;7.318;2023-02-04T09:18:21;22.02;;;6.68;;
43124;SDS011;49182;50.788;7.318;2023-02-04T09:20:48;17.27;;;6.43;;
43124;SDS011;49182;50.788;7.318;2023-02-04T09:23:15;19.55;;;6.43;;
43124;SDS011;49182;50.788;7.318;2023-02-04T09:25:43;20.48;;;7.22;;
43124;SDS011;49182;50.788;7.318;2023-02-04T09:28:11;23.23;;;6.32;;
43124;SDS011;49182;50.788;7.318;2023-02-04T09:30:38;23.15;;;8.50;;
43124;SDS011;49182;50.788;7.318;2023-02-04T09:33:08;25.60;;;7.13;;
43124;SDS011;49182;50.788;7.318;2023-02-04T09:35:36;18.50;;;7.28;;
43124;SDS011;49182;50.788;7.318;2023-02-04T09:38:03;18.13;;;5.50;;
43124;SDS011;49182;50.788;7.318;2023-02-04T09:40:30;19.48;;;5.53;;
43124;SDS011;49182;50.788;7.318;2023-02-04T09:42:59;24.90;;;6.65;;
43124;SDS011;49182;50.788;7.318;2023-02-04T09:45:28;16.90;;;5.70;;
43124;SDS011;49182;50.788;7.318;2023-02-04T09:47:58;23.88;;;6.30;;
43124;SDS011;49182;50.788;7.318;2023-02-04T09:50:29;23.52;;;7.20;;
43124;SDS011;49182;50.788;7.318;2023-02-04T09:52:58;22.25;;;7.10;;
43124;SDS011;49182;50.788;7.318;2023-02-04T09:55:27;23.42;;;6.00;;
43124;SDS011;49182;50.788;7.318;2023-02-04T09:57:57;23.02;;;5.95;;
43124;SDS011;49182;50.788;7.318;2023-02-04T10:00:24;26.05;;;6.50;;
43124;SDS011;49182;50.788;7.318;2023-02-04T10:02:52;17.65;;;5.38;;
43124;SDS011;49182;50.788;7.318;2023-02-04T10:05:20;24.10;;;6.85;;
43124;SDS011;49182;50.788;7.318;2023-02-04T10:07:53;20.85;;;6.63;;
43124;SDS011;49182;50.788;7.318;2023-02-04T10:10:21;18.83;;;5.97;;
43124;SDS011;49182;50.788;7.318;2023-02-04T10:12:50;27.52;;;7.05;;
43124;SDS011;49182;50.788;7.318;2023-02-04T10:15:18;24.30;;;6.90;;
43124;SDS011;49182;50.788;7.318;2023-02-04T10:17:46;24.73;;;6.78;;
43124;SDS011;49182;50.788;7.318;2023-02-04T10:20:17;18.95;;;6.68;;
43124;SDS011;49182;50.788;7.318;2023-02-04T10:22:50;22.35;;;7.05;;
43124;SDS011;49182;50.788;7.318;2023-02-04T10:25:21;23.92;;;6.65;;
43124;SDS011;49182;50.788;7.318;2023-02-04T10:27:49;21.25;;;6.25;;
43124;SDS011;49182;50.788;7.318;2023-02-04T10:30:18;22.98;;;6.32;;
43124;SDS011;49182;50.788;7.318;2023-02-04T10:32:46;28.73;;;7.47;;
43124;SDS011;49182;50.788;7.318;2023-02-04T10:35:14;19.02;;;6.38;;
43124;SDS011;49182;50.788;7.318;2023-02-04T10:37:42;21.30;;;5.68;;
43124;SDS011;49182;50.788;7.318;2023-02-04T10:42:53;21.05;;;7.22;;
43124;SDS011;49182;50.788;7.318;2023-02-04T10:45:20;14.02;;;5.10;;
43124;SDS011;49182;50.788;7.318;2023-02-04T10:47:49;24.23;;;6.45;;
43124;SDS011;49182;50.788;7.318;2023-02-04T10:50:17;16.13;;;6.57;;
43124;SDS011;49182;50.788;7.318;2023-02-04T10:52:46;21.63;;;5.95;;
43124;SDS011;49182;50.788;7.318;2023-02-04T10:55:15;23.42;;;6.78;;
43124;SDS011;49182;50.788;7.318;2023-02-04T10:57:45;23.83;;;7.07;;
43124;SDS011;49182;50.788;7.318;2023-02-04T11:00:15;19.67;;;7.30;;
43124;SDS011;49182;50.788;7.318;2023-02-04T11:02:43;25.92;;;7.45;;
43124;SDS011;49182;50.788;7.318;2023-02-04T11:05:14;22.15;;;7.43;;
43124;SDS011;49182;50.788;7.318;2023-02-04T11:07:43;20.13;;;6.40;;
43124;SDS011;49182;50.788;7.318;2023-02-04T11:10:11;22.23;;;6.85;;
43124;SDS011;49182;50.788;7.318;2023-02-04T11:12:40;21.92;;;6.40;;
43124;SDS011;49182;50.788;7.318;2023-02-04T11:18:05;23.60;;;6.63;;
43124;SDS011;49182;50.788;7.318;2023-02-04T11:20:33;21.17;;;7.57;;
43124;SDS011;49182;50.788;7.318;2023-02-04T11:23:12;21.10;;;6.30;;
43124;SDS011;49182;50.788;7.318;2023-02-04T11:26:00;26.85;;;7.03;;
43124;SDS011;49182;50.788;7.318;2023-02-04T11:28:37;22.90;;;7.05;;
43124;SDS011;49182;50.788;7.318;2023-02-04T11:31:24;31.63;;;7.00;;
43124;SDS011;49182;50.788;7.318;2023-02-04T11:36:50;24.58;;;6.55;;
43124;SDS011;49182;50.788;7.318;2023-02-04T11:39:21;22.40;;;7.53;;
43124;SDS011;49182;50.788;7.318;2023-02-04T11:41:52;21.50;;;6.30;;
43124;SDS011;49182;50.788;7.318;2023-02-04T11:44:18;23.70;;;6.03;;
43124;SDS011;49182;50.788;7.318;2023-02-04T11:46:49;17.48;;;5.05;;
43124;SDS011;49182;50.788;7.318;2023-02-04T11:49:18;20.73;;;5.32;;
43124;SDS011;49182;50.788;7.318;2023-02-04T11:51:45;17.48;;;5.35;;
43124;SDS011;49182;50.788;7.318;2023-02-04T11:54:12;19.10;;;4.47;;
43124;SDS011;49182;50.788;7.318;2023-02-04T11:56:40;14.45;;;4.97;;
43124;SDS011;49182;50.788;7.318;2023-02-04T11:59:08;16.92;;;4.55;;
43124;SDS011;49182;50.788;7.318;2023-02-04T12:01:36;15.27;;;4.80;;
43124;SDS011;49182;50.788;7.318;2023-02-04T12:04:05;24.27;;;5.72;;
43124;SDS011;49182;50.788;7.318;2023-02-04T12:06:34;23.27;;;4.90;;
43124;SDS011;49182;50.788;7.318;2023-02-04T12:09:05;18.90;;;4.95;;
43124;SDS011;49182;50.788;7.318;2023-02-04T12:11:32;19.27;;;4.90;;
43124;SDS011;49182;50.788;7.318;2023-02-04T12:14:05;22.90;;;5.10;;
43124;SDS011;49182;50.788;7.318;2023-02-04T12:16:39;21.48;;;4.70;;
43124;SDS011;49182;50.788;7.318;2023-02-04T12:19:07;17.60;;;5.13;;
43124;SDS011;49182;50.788;7.318;2023-02-04T12:21:33;16.55;;;4.75;;
43124;SDS011;49182;50.788;7.318;2023-02-04T12:24:00;21.52;;;4.40;;
43124;SDS011;49182;50.788;7.318;2023-02-04T12:26:27;20.27;;;4.63;;
43124;SDS011;49182;50.788;7.318;2023-02-04T12:28:53;15.32;;;4.38;;
43124;SDS011;49182;50.788;7.318;2023-02-04T12:31:20;18.42;;;4.05;;
43124;SDS011;49182;50.788;7.318;2023-02-04T12:33:46;15.18;;;4.60;;
43124;SDS011;49182;50.788;7.318;2023-02-04T12:36:14;20.08;;;5.05;;
43124;SDS011;49182;50.788;7.318;2023-02-04T12:38:41;18.23;;;5.40;;
43124;SDS011;49182;50.788;7.318;2023-02-04T12:41:08;16.98;;;4.82;;
43124;SDS011;49182;50.788;7.318;2023-02-04T12:43:35;21.30;;;5.63;;
43124;SDS011;49182;50.788;7.318;2023-02-04T12:46:01;24.20;;;6.03;;
43124;SDS011;49182;50.788;7.318;2023-02-04T12:48:28;18.60;;;5.30;;
43124;SDS011;49182;50.788;7.318;2023-02-04T12:50:55;19.33;;;5.18;;
43124;SDS011;49182;50.788;7.318;2023-02-04T12:53:23;22.90;;;7.10;;
43124;SDS011;49182;50.788;7.318;2023-02-04T12:55:50;21.73;;;5.82;;
43124;SDS011;49182;50.788;7.318;2023-02-04T12:58:16;20.60;;;4.80;;
43124;SDS011;49182;50.788;7.318;2023-02-04T13:00:43;18.50;;;5.22;;
43124;SDS011;49182;50.788;7.318;2023-02-04T13:03:10;23.63;;;5.03;;
43124;SDS011;49182;50.788;7.318;2023-02-04T13:05:36;17.85;;;4.15;;
43124;SDS011;49182;50.788;7.318;2023-02-04T13:08:03;16.55;;;4.10;;
43124;SDS011;49182;50.788;7.318;2023-02-04T13:10:31;18.38;;;4.55;;
43124;SDS011;49182;50.788;7.318;2023-02-04T13:12:58;16.33;;;4.25;;
43124;SDS011;49182;50.788;7.318;2023-02-04T13:15:24;20.17;;;5.05;;
43124;SDS011;49182;50.788;7.318;2023-02-04T13:17:51;17.30;;;4.03;;
43124;SDS011;49182;50.788;7.318;2023-02-04T13:20:18;18.88;;;4.10;;
43124;SDS011;49182;50.788;7.318;2023-02-04T13:22:45;12.77;;;4.10;;
43124;SDS011;49182;50.788;7.318;2023-02-04T13:25:11;21.00;;;5.00;;
43124;SDS011;49182;50.788;7.318;2023-02-04T13:27:39;21.23;;;4.32;;
43124;SDS011;49182;50.788;7.318;2023-02-04T13:30:07;17.40;;;3.58;;
43124;SDS011;49182;50.788;7.318;2023-02-04T13:32:34;17.15;;;3.70;;
43124;SDS011;49182;50.788;7.318;2023-02-04T13:35:01;15.75;;;4.18;;
43124;SDS011;49182;50.788;7.318;2023-02-04T13:37:28;17.67;;;3.72;;
43124;SDS011;49182;50.788;7.318;2023-02-04T13:39:54;20.45;;;4.18;;
43124;SDS011;49182;50.788;7.318;2023-02-04T13:42:21;21.92;;;4.82;;
43124;SDS011;49182;50.788;7.318;2023-02-04T13:44:49;19.55;;;4.78;;
43124;SDS011;49182;50.788;7.318;2023-02-04T13:47:15;15.50;;;4.63;;
43124;SDS011;49182;50.788;7.318;2023-02-04T13:49:42;15.07;;;5.50;;
43124;SDS011;49182;50.788;7.318;2023-02-04T13:52:08;15.15;;;5.00;;
43124;SDS011;49182;50.788;7.318;2023-02-04T13:54:35;19.45;;;5.20;;
43124;SDS011;49182;50.788;7.318;2023-02-04T13:57:02;19.75;;;4.90;;
43124;SDS011;49182;50.788;7.318;2023-02-04T13:59:28;13.35;;;4.80;;
43124;SDS011;49182;50.788;7.318;2023-02-04T14:01:57;19.90;;;5.75;;
43124;SDS011;49182;50.788;7.318;2023-02-04T14:04:24;17.48;;;5.57;;
43124;SDS011;49182;50.788;7.318;2023-02-04T14:06:50;18.23;;;5.63;;
43124;SDS011;49182;50.788;7.318;2023-02-04T14:09:17;17.88;;;5.30;;
43124;SDS011;49182;50.788;7.318;2023-02-04T14:11:43;13.85;;;5.38;;
43124;SDS011;49182;50.788;7.318;2023-02-04T14:14:10;19.73;;;4.97;;
43124;SDS011;49182;50.788;7.318;2023-02-04T14:16:36;18.60;;;5.25;;
43124;SDS011;49182;50.788;7.318;2023-02-04T14:19:04;20.80;;;5.10;;
43124;SDS011;49182;50.788;7.318;2023-02-04T14:21:31;22.63;;;5.88;;
43124;SDS011;49182;50.788;7.318;2023-02-04T14:23:58;16.58;;;5.30;;
43124;SDS011;49182;50.788;7.318;2023-02-04T14:26:25;16.52;;;5.30;;
43124;SDS011;49182;50.788;7.318;2023-02-04T14:28:51;17.50;;;5.22;;
43124;SDS011;49182;50.788;7.318;2023-02-04T14:31:18;19.35;;;5.45;;
43124;SDS011;49182;50.788;7.318;2023-02-04T14:33:45;19.13;;;4.82;;
43124;SDS011;49182;50.788;7.318;2023-02-04T14:36:15;12.25;;;4.82;;
43124;SDS011;49182;50.788;7.318;2023-02-04T14:38:42;23.58;;;4.95;;
43124;SDS011;49182;50.788;7.318;2023-02-04T14:41:09;15.27;;;4.88;;
43124;SDS011;49182;50.788;7.318;2023-02-04T14:43:35;21.65;;;5.68;;